createdAt,value
2016-01-27T00:00:30.264Z,1007.2
2016-01-27T00:01:30.203Z,1007.3
2016-01-27T00:02:30.159Z,1007.2
2016-01-27T00:03:30.116Z,1007.3
2016-01-27T00:04:30.040Z,1007.2
2016-01-27T00:05:29.995Z,1007.1
2016-01-27T00:06:29.953Z,1007.2
2016-01-27T00:07:29.895Z,1007.2
2016-01-27T00:08:30.038Z,1007.2
2016-01-27T00:09:29.774Z,1007.2
2016-01-27T00:10:29.730Z,1007.2
2016-01-27T00:11:29.671Z,1007.3
2016-01-27T00:12:29.628Z,1007.2
2016-01-27T00:13:29.412Z,1007.2
2016-01-27T00:14:29.508Z,1007.2
2016-01-27T00:15:29.714Z,1007.1
2016-01-27T00:16:29.406Z,1007.1
2016-01-27T00:17:29.379Z,1007.1
2016-01-27T00:18:29.506Z,1007.1
2016-01-27T00:19:29.259Z,1007.2
2016-01-27T00:20:29.184Z,1007
2016-01-27T00:21:29.170Z,1007.1
2016-01-27T00:22:29.096Z,1007
2016-01-27T00:23:29.023Z,1007
2016-01-27T00:24:28.979Z,1007.2
2016-01-27T00:25:28.935Z,1007.1
2016-01-27T00:26:28.875Z,1007
2016-01-27T00:27:28.831Z,1007
2016-01-27T00:28:28.757Z,1007
2016-01-27T00:29:28.712Z,1006.9
2016-01-27T00:30:28.902Z,1006.9
2016-01-27T00:31:28.812Z,1006.9
2016-01-27T00:32:28.549Z,1006.9
2016-01-27T00:33:28.505Z,1006.9
2016-01-27T00:34:28.461Z,1006.8
2016-01-27T00:35:28.386Z,1006.9
2016-01-27T00:36:28.342Z,1006.9
2016-01-27T00:37:28.298Z,1006.9
2016-01-27T00:38:28.081Z,1007
2016-01-27T00:39:28.179Z,1006.9
2016-01-27T00:40:28.322Z,1006.8
2016-01-27T00:41:28.076Z,1006.9
2016-01-27T00:42:28.015Z,1006.8
2016-01-27T00:43:27.956Z,1006.9
2016-01-27T00:44:27.913Z,1007
2016-01-27T00:45:27.118Z,1006.9
2016-01-27T00:46:27.810Z,1007
2016-01-27T00:47:27.593Z,1006.9
2016-01-27T00:48:27.705Z,1006.9
2016-01-27T00:49:27.645Z,1007
2016-01-27T00:50:27.584Z,1006.9
2016-01-27T00:51:27.540Z,1006.9
2016-01-27T00:52:27.480Z,1006.9
2016-01-27T00:53:27.439Z,1006.9
2016-01-27T00:54:27.379Z,1006.8
2016-01-27T00:55:27.336Z,1007
2016-01-27T00:56:27.275Z,1007
2016-01-27T00:57:27.231Z,1006.8
2016-01-27T00:58:27.157Z,1006.9
2016-01-27T00:59:27.114Z,1006.9
2016-01-27T01:00:27.055Z,1006.8
2016-01-27T01:01:26.995Z,1006.7
2016-01-27T01:02:26.938Z,1006.9
2016-01-27T01:03:26.894Z,1006.8
2016-01-27T01:04:27.036Z,1006.7
2016-01-27T01:05:26.790Z,1006.8
2016-01-27T01:06:26.731Z,1006.7
2016-01-27T01:07:26.671Z,1006.8
2016-01-27T01:08:26.612Z,1006.8
2016-01-27T01:09:26.567Z,1006.9
2016-01-27T01:10:26.508Z,1006.7
2016-01-27T01:11:26.698Z,1006.7
2016-01-27T01:12:26.404Z,1006.9
2016-01-27T01:13:26.594Z,1006.8
2016-01-27T01:14:26.301Z,1006.8
2016-01-27T01:15:26.258Z,1006.8
2016-01-27T01:16:26.183Z,1006.8
2016-01-27T01:17:26.139Z,1006.8
2016-01-27T01:18:26.078Z,1006.8
2016-01-27T01:19:26.259Z,1006.9
2016-01-27T01:20:25.982Z,1006.9
2016-01-27T01:21:25.923Z,1006.9
2016-01-27T01:22:25.865Z,1006.8
2016-01-27T01:23:25.820Z,1006.8
2016-01-27T01:24:25.748Z,1006.9
2016-01-27T01:25:25.719Z,1006.9
2016-01-27T01:26:25.643Z,1007
2016-01-27T01:27:25.585Z,1007
2016-01-27T01:28:25.541Z,1006.9
2016-01-27T01:29:25.497Z,1006.8
2016-01-27T01:30:25.671Z,1007
2016-01-27T01:31:25.580Z,1007
2016-01-27T01:32:25.317Z,1006.8
2016-01-27T01:33:25.273Z,1007.1
2016-01-27T01:34:25.230Z,1007
2016-01-27T01:35:25.155Z,1007
2016-01-27T01:36:25.112Z,1007.1
2016-01-27T01:37:24.305Z,1006.7
2016-01-27T01:38:25.012Z,1006.8
2016-01-27T01:39:24.795Z,1007
2016-01-27T01:40:24.894Z,1006.9
2016-01-27T01:41:24.866Z,1007
2016-01-27T01:42:24.775Z,1006.9
2016-01-27T01:43:24.731Z,1007
2016-01-27T01:44:24.688Z,1007
2016-01-27T01:45:24.629Z,1006.8
2016-01-27T01:46:24.570Z,1007
2016-01-27T01:47:24.510Z,1006.9
2016-01-27T01:48:24.481Z,1007
2016-01-27T01:49:24.407Z,1006.9
2016-01-27T01:50:24.347Z,1007.1
2016-01-27T01:51:24.301Z,1007.1
2016-01-27T01:52:24.257Z,1007
2016-01-27T01:53:24.215Z,1007.1
2016-01-27T01:54:24.155Z,1006.9
2016-01-27T01:55:24.077Z,1007
2016-01-27T01:56:24.017Z,1007
2016-01-27T01:57:24.176Z,1007
2016-01-27T01:58:23.930Z,1006.9
2016-01-27T01:59:23.871Z,1007
2016-01-27T02:00:23.810Z,1007
2016-01-27T02:01:23.751Z,1007.1
2016-01-27T02:02:23.708Z,1006.9
2016-01-27T02:03:23.664Z,1007
2016-01-27T02:04:23.792Z,1007
2016-01-27T02:05:23.745Z,1007
2016-01-27T02:06:23.506Z,1006.9
2016-01-27T02:07:23.422Z,1007
2016-01-27T02:08:23.355Z,1006.8
2016-01-27T02:09:23.288Z,1007
2016-01-27T02:10:23.237Z,1006.9
2016-01-27T02:11:23.174Z,1007
2016-01-27T02:12:23.113Z,1007
2016-01-27T02:13:23.252Z,1006.9
2016-01-27T02:14:23.002Z,1007
2016-01-27T02:15:22.942Z,1006.9
2016-01-27T02:16:22.881Z,1007
2016-01-27T02:17:22.851Z,1006.8
2016-01-27T02:18:22.775Z,1006.8
2016-01-27T02:19:22.731Z,1006.9
2016-01-27T02:20:22.874Z,1006.8
2016-01-27T02:21:22.615Z,1006.8
2016-01-27T02:22:22.571Z,1006.8
2016-01-27T02:23:22.496Z,1006.8
2016-01-27T02:24:22.452Z,1006.8
2016-01-27T02:25:22.407Z,1006.8
2016-01-27T02:26:22.332Z,1006.9
2016-01-27T02:27:22.320Z,1006.8
2016-01-27T02:28:22.245Z,1006.8
2016-01-27T02:29:22.389Z,1006.8
2016-01-27T02:30:22.141Z,1006.8
2016-01-27T02:31:22.332Z,1006.7
2016-01-27T02:32:22.022Z,1006.7
2016-01-27T02:33:21.993Z,1006.8
2016-01-27T02:34:21.918Z,1006.8
2016-01-27T02:35:21.123Z,1006.7
2016-01-27T02:36:21.831Z,1006.7
2016-01-27T02:37:21.771Z,1006.7
2016-01-27T02:38:20.946Z,1006.6
2016-01-27T02:39:21.651Z,1006.8
2016-01-27T02:40:21.607Z,1006.7
2016-01-27T02:41:21.533Z,1006.6
2016-01-27T02:42:21.505Z,1006.6
2016-01-27T02:43:21.866Z,1006.6
2016-01-27T02:44:21.385Z,1006.5
2016-01-27T02:45:21.560Z,1006.5
2016-01-27T02:46:21.282Z,1006.5
2016-01-27T02:47:21.426Z,1006.4
2016-01-27T02:48:21.163Z,1006.5
2016-01-27T02:49:21.119Z,1006.5
2016-01-27T02:50:21.067Z,1006.3
2016-01-27T02:51:21.023Z,1006.5
2016-01-27T02:52:21.153Z,1006.5
2016-01-27T02:53:20.891Z,1006.5
2016-01-27T02:54:20.846Z,1006.4
2016-01-27T02:55:20.787Z,1006.4
2016-01-27T02:56:20.744Z,1006.5
2016-01-27T02:57:20.684Z,1006.4
2016-01-27T02:58:20.624Z,1006.3
2016-01-27T02:59:20.580Z,1006.3
2016-01-27T03:00:20.522Z,1006.2
2016-01-27T03:01:20.492Z,1006.5
2016-01-27T03:02:20.406Z,1006.3
2016-01-27T03:03:20.362Z,1006.2
2016-01-27T03:04:20.302Z,1006.4
2016-01-27T03:05:20.259Z,1006.3
2016-01-27T03:06:20.418Z,1006.3
2016-01-27T03:07:20.375Z,1006.3
2016-01-27T03:08:20.080Z,1006.3
2016-01-27T03:09:20.023Z,1006.4
2016-01-27T03:10:19.979Z,1006.3
2016-01-27T03:11:19.935Z,1006.3
2016-01-27T03:12:19.875Z,1006.2
2016-01-27T03:13:19.815Z,1006.1
2016-01-27T03:14:19.771Z,1006.1
2016-01-27T03:15:19.729Z,1006.1
2016-01-27T03:16:19.653Z,1006.1
2016-01-27T03:17:18.864Z,1006
2016-01-27T03:18:19.541Z,1006
2016-01-27T03:19:19.532Z,1006.1
2016-01-27T03:20:19.445Z,1006.1
2016-01-27T03:21:19.265Z,1006.2
2016-01-27T03:22:19.330Z,1006.2
2016-01-27T03:23:19.286Z,1006.2
2016-01-27T03:24:19.229Z,1006.3
2016-01-27T03:25:19.185Z,1006.1
2016-01-27T03:26:19.110Z,1006.3
2016-01-27T03:27:19.269Z,1006.3
2016-01-27T03:28:19.007Z,1006.1
2016-01-27T03:29:18.962Z,1006.1
2016-01-27T03:30:18.918Z,1006.1
2016-01-27T03:31:18.860Z,1006
2016-01-27T03:32:18.801Z,1006
2016-01-27T03:33:18.741Z,1006
2016-01-27T03:34:18.697Z,1006
2016-01-27T03:35:18.480Z,1006
2016-01-27T03:36:18.578Z,1006
2016-01-27T03:37:18.534Z,1006
2016-01-27T03:38:18.490Z,1006.1
2016-01-27T03:39:18.445Z,1006
2016-01-27T03:40:18.373Z,1005.9
2016-01-27T03:41:18.562Z,1005.9
2016-01-27T03:42:18.253Z,1006
2016-01-27T03:43:18.209Z,1006
2016-01-27T03:44:18.164Z,1006.1
2016-01-27T03:45:18.105Z,1006.1
2016-01-27T03:46:18.061Z,1005.9
2016-01-27T03:47:18.001Z,1006.1
2016-01-27T03:48:17.957Z,1006.1
2016-01-27T03:49:17.899Z,1006
2016-01-27T03:50:18.074Z,1006
2016-01-27T03:51:17.780Z,1006
2016-01-27T03:52:17.738Z,1006
2016-01-27T03:53:17.697Z,1006
2016-01-27T03:54:17.856Z,1006.2
2016-01-27T03:55:17.593Z,1006
2016-01-27T03:56:17.519Z,1006.2
2016-01-27T03:57:17.475Z,1006
2016-01-27T03:58:17.432Z,1006.1
2016-01-27T03:59:17.373Z,1006.1
2016-01-27T04:00:17.312Z,1006.1
2016-01-27T04:01:17.268Z,1006.1
2016-01-27T04:02:17.226Z,1006.2
2016-01-27T04:03:17.150Z,1006
2016-01-27T04:04:17.106Z,1006.1
2016-01-27T04:05:17.250Z,1006
2016-01-27T04:06:17.002Z,1006.1
2016-01-27T04:07:16.958Z,1006.1
2016-01-27T04:08:16.914Z,1006.2
2016-01-27T04:09:17.042Z,1006.1
2016-01-27T04:10:16.780Z,1006.1
2016-01-27T04:11:16.739Z,1006.2
2016-01-27T04:12:16.694Z,1006.2
2016-01-27T04:13:16.650Z,1006.2
2016-01-27T04:14:16.575Z,1006.1
2016-01-27T04:15:16.532Z,1006.2
2016-01-27T04:16:16.474Z,1006.2
2016-01-27T04:17:16.429Z,1006.1
2016-01-27T04:18:16.606Z,1006.2
2016-01-27T04:19:16.311Z,1006.1
2016-01-27T04:20:16.282Z,1006.1
2016-01-27T04:21:16.223Z,1006.1
2016-01-27T04:22:16.164Z,1006.1
2016-01-27T04:23:16.097Z,1006.3
2016-01-27T04:24:16.055Z,1006.1
2016-01-27T04:25:15.998Z,1006.2
2016-01-27T04:26:16.156Z,1006.1
2016-01-27T04:27:16.096Z,1006.2
2016-01-27T04:28:15.834Z,1006.1
2016-01-27T04:29:15.790Z,1006.2
2016-01-27T04:30:15.730Z,1006
2016-01-27T04:31:15.685Z,1006
2016-01-27T04:32:15.642Z,1006
2016-01-27T04:33:15.568Z,1006
2016-01-27T04:34:15.540Z,1006.1
2016-01-27T04:35:15.465Z,1006
2016-01-27T04:36:15.608Z,1006.1
2016-01-27T04:37:15.344Z,1006.1
2016-01-27T04:38:15.300Z,1006.1
2016-01-27T04:39:15.256Z,1006.3
2016-01-27T04:40:15.201Z,1006.2
2016-01-27T04:41:15.171Z,1006.2
2016-01-27T04:42:15.284Z,1006.2
2016-01-27T04:43:15.052Z,1006.2
2016-01-27T04:44:14.977Z,1006.2
2016-01-27T04:45:14.934Z,1006.1
2016-01-27T04:46:14.890Z,1006.1
2016-01-27T04:47:14.814Z,1006.2
2016-01-27T04:48:14.754Z,1006.2
2016-01-27T04:49:14.756Z,1006.1
2016-01-27T04:50:14.651Z,1006.2
2016-01-27T04:51:14.606Z,1006.2
2016-01-27T04:52:14.548Z,1006.1
2016-01-27T04:53:14.520Z,1006.2
2016-01-27T04:54:14.460Z,1006.1
2016-01-27T04:55:14.384Z,1006.2
2016-01-27T04:56:14.576Z,1006.1
2016-01-27T04:57:13.533Z,1006
2016-01-27T04:58:14.238Z,1006.1
2016-01-27T04:59:14.178Z,1006.1
2016-01-27T05:00:14.324Z,1006.1
2016-01-27T05:01:14.062Z,1006
2016-01-27T05:02:14.018Z,1006
2016-01-27T05:03:13.973Z,1006
2016-01-27T05:04:13.915Z,1006.1
2016-01-27T05:05:13.856Z,1006.1
2016-01-27T05:06:13.796Z,1006.1
2016-01-27T05:07:13.755Z,1006.1
2016-01-27T05:08:13.710Z,1006.1
2016-01-27T05:09:13.635Z,1006.1
2016-01-27T05:10:13.590Z,1006.1
2016-01-27T05:11:13.580Z,1006.1
2016-01-27T05:12:13.723Z,1006.1
2016-01-27T05:13:13.444Z,1006.1
2016-01-27T05:14:13.369Z,1006.1
2016-01-27T05:15:13.560Z,1006
2016-01-27T05:16:13.471Z,1006
2016-01-27T05:17:13.223Z,1006
2016-01-27T05:18:13.148Z,1005.9
2016-01-27T05:19:13.105Z,1005.9
2016-01-27T05:20:13.049Z,1006
2016-01-27T05:21:13.005Z,1006
2016-01-27T05:22:13.154Z,1006
2016-01-27T05:23:13.094Z,1006
2016-01-27T05:24:12.846Z,1005.9
2016-01-27T05:25:12.786Z,1005.9
2016-01-27T05:26:12.744Z,1005.9
2016-01-27T05:27:12.683Z,1006
2016-01-27T05:28:12.639Z,1006
2016-01-27T05:29:12.584Z,1005.9
2016-01-27T05:30:12.760Z,1005.8
2016-01-27T05:31:12.480Z,1006
2016-01-27T05:32:12.451Z,1005.9
2016-01-27T05:33:12.362Z,1006
2016-01-27T05:34:12.333Z,1006
2016-01-27T05:35:11.524Z,1006
2016-01-27T05:36:12.229Z,1005.8
2016-01-27T05:37:12.174Z,1006
2016-01-27T05:38:12.115Z,1005.8
2016-01-27T05:39:12.070Z,1005.9
2016-01-27T05:40:12.122Z,1005.9
2016-01-27T05:41:12.000Z,1005.9
2016-01-27T05:42:11.988Z,1005.8
2016-01-27T05:43:11.880Z,1005.8
2016-01-27T05:44:11.793Z,1006
2016-01-27T05:45:11.780Z,1005.8
2016-01-27T05:46:11.891Z,1005.7
2016-01-27T05:47:11.676Z,1005.8
2016-01-27T05:48:11.602Z,1005.7
2016-01-27T05:49:11.761Z,1005.9
2016-01-27T05:50:11.491Z,1005.9
2016-01-27T05:51:11.493Z,1005.8
2016-01-27T05:52:11.388Z,1005.7
2016-01-27T05:53:11.327Z,1005.9
2016-01-27T05:54:11.393Z,1005.8
2016-01-27T05:55:11.240Z,1005.8
2016-01-27T05:56:11.382Z,1005.8
2016-01-27T05:57:11.120Z,1005.7
2016-01-27T05:58:11.075Z,1005.9
2016-01-27T05:59:11.016Z,1005.8
2016-01-27T06:00:11.174Z,1005.8
2016-01-27T06:01:11.114Z,1005.7
2016-01-27T06:02:10.851Z,1005.8
2016-01-27T06:03:10.807Z,1005.7
2016-01-27T06:04:10.766Z,1005.7
2016-01-27T06:05:10.689Z,1005.7
2016-01-27T06:06:10.852Z,1005.7
2016-01-27T06:07:10.589Z,1005.7
2016-01-27T06:08:10.545Z,1005.6
2016-01-27T06:09:10.500Z,1005.7
2016-01-27T06:10:10.441Z,1005.6
2016-01-27T06:11:10.399Z,1005.6
2016-01-27T06:12:10.323Z,1005.5
2016-01-27T06:13:10.263Z,1005.6
2016-01-27T06:14:10.219Z,1005.6
2016-01-27T06:15:10.160Z,1005.5
2016-01-27T06:16:10.116Z,1005.5
2016-01-27T06:17:10.056Z,1005.5
2016-01-27T06:18:10.013Z,1005.5
2016-01-27T06:19:10.173Z,1005.6
2016-01-27T06:20:09.894Z,1005.4
2016-01-27T06:21:09.851Z,1005.5
2016-01-27T06:22:09.793Z,1005.5
2016-01-27T06:23:09.624Z,1005.4
2016-01-27T06:24:09.689Z,1005.6
2016-01-27T06:25:09.629Z,1005.5
2016-01-27T06:26:09.571Z,1005.5
2016-01-27T06:27:09.526Z,1005.5
2016-01-27T06:28:09.483Z,1005.5
2016-01-27T06:29:09.407Z,1005.5
2016-01-27T06:30:09.365Z,1005.5
2016-01-27T06:31:09.304Z,1005.6
2016-01-27T06:32:09.261Z,1005.4
2016-01-27T06:33:09.203Z,1005.4
2016-01-27T06:34:09.142Z,1005.4
2016-01-27T06:35:09.083Z,1005.3
2016-01-27T06:36:09.038Z,1005.2
2016-01-27T06:37:09.012Z,1005.4
2016-01-27T06:38:08.936Z,1005.3
2016-01-27T06:39:08.876Z,1005.2
2016-01-27T06:40:08.848Z,1005.3
2016-01-27T06:41:08.773Z,1005.3
2016-01-27T06:42:08.729Z,1005.3
2016-01-27T06:43:08.872Z,1005.4
2016-01-27T06:44:08.802Z,1005.4
2016-01-27T06:45:08.554Z,1005.3
2016-01-27T06:46:08.509Z,1005.3
2016-01-27T06:47:08.466Z,1005.4
2016-01-27T06:48:08.597Z,1005.3
2016-01-27T06:49:07.585Z,1005.4
2016-01-27T06:50:08.274Z,1005.5
2016-01-27T06:51:08.246Z,1005.5
2016-01-27T06:52:08.187Z,1005.4
2016-01-27T06:53:08.128Z,1005.5
2016-01-27T06:54:08.085Z,1005.4
2016-01-27T06:55:08.009Z,1005.4
2016-01-27T06:56:08.200Z,1005.5
2016-01-27T06:57:07.905Z,1005.5
2016-01-27T06:58:07.860Z,1005.5
2016-01-27T06:59:07.802Z,1005.6
2016-01-27T07:00:07.742Z,1005.6
2016-01-27T07:01:07.932Z,1005.5
2016-01-27T07:02:07.841Z,1005.5
2016-01-27T07:03:07.595Z,1005.5
2016-01-27T07:04:07.552Z,1005.5
2016-01-27T07:05:07.476Z,1005.5
2016-01-27T07:06:07.433Z,1005.5
2016-01-27T07:07:07.372Z,1005.4
2016-01-27T07:08:07.313Z,1005.5
2016-01-27T07:09:07.315Z,1005.5
2016-01-27T07:10:07.211Z,1005.5
2016-01-27T07:11:07.151Z,1005.5
2016-01-27T07:12:07.106Z,1005.5
2016-01-27T07:13:07.063Z,1005.5
2016-01-27T07:14:06.991Z,1005.6
2016-01-27T07:15:07.134Z,1005.5
2016-01-27T07:16:07.075Z,1005.7
2016-01-27T07:17:06.844Z,1005.6
2016-01-27T07:18:06.785Z,1005.7
2016-01-27T07:19:06.740Z,1005.6
2016-01-27T07:20:06.665Z,1005.7
2016-01-27T07:21:06.855Z,1005.7
2016-01-27T07:22:06.575Z,1005.7
2016-01-27T07:23:06.753Z,1005.5
2016-01-27T07:24:06.662Z,1005.7
2016-01-27T07:25:06.635Z,1005.7
2016-01-27T07:26:06.356Z,1005.7
2016-01-27T07:27:06.312Z,1005.7
2016-01-27T07:28:06.237Z,1005.6
2016-01-27T07:29:06.036Z,1005.7
2016-01-27T07:30:06.367Z,1005.6
2016-01-27T07:31:06.072Z,1005.7
2016-01-27T07:32:06.029Z,1005.6
2016-01-27T07:33:05.984Z,1005.7
2016-01-27T07:34:05.910Z,1005.6
2016-01-27T07:35:05.866Z,1005.6
2016-01-27T07:36:05.899Z,1005.6
2016-01-27T07:37:05.765Z,1005.6
2016-01-27T07:38:05.704Z,1005.5
2016-01-27T07:39:05.677Z,1005.6
2016-01-27T07:40:05.601Z,1005.7
2016-01-27T07:41:05.543Z,1005.6
2016-01-27T07:42:05.499Z,1005.6
2016-01-27T07:43:05.455Z,1005.6
2016-01-27T07:44:05.380Z,1005.5
2016-01-27T07:45:04.573Z,1005.5
2016-01-27T07:46:05.498Z,1005.5
2016-01-27T07:47:05.235Z,1005.5
2016-01-27T07:48:05.380Z,1005.5
2016-01-27T07:49:05.133Z,1005.5
2016-01-27T07:50:05.073Z,1005.5
2016-01-27T07:51:05.029Z,1005.6
2016-01-27T07:52:04.985Z,1005.6
2016-01-27T07:53:04.925Z,1005.6
2016-01-27T07:54:04.868Z,1005.7
2016-01-27T07:55:04.808Z,1005.6
2016-01-27T07:56:04.986Z,1005.7
2016-01-27T07:57:04.722Z,1005.6
2016-01-27T07:58:04.663Z,1005.6
2016-01-27T07:59:04.604Z,1005.6
2016-01-27T08:00:04.560Z,1005.6
2016-01-27T08:01:04.499Z,1005.6
2016-01-27T08:02:04.456Z,1005.7
2016-01-27T08:03:04.244Z,1005.7
2016-01-27T08:04:04.340Z,1005.6
2016-01-27T08:05:04.296Z,1005.7
2016-01-27T08:06:04.236Z,1005.6
2016-01-27T08:07:04.209Z,1005.8
2016-01-27T08:08:04.133Z,1005.8
2016-01-27T08:09:04.089Z,1005.7
2016-01-27T08:10:04.030Z,1005.7
2016-01-27T08:11:04.002Z,1005.9
2016-01-27T08:12:03.177Z,1005.8
2016-01-27T08:13:03.883Z,1005.9
2016-01-27T08:14:03.827Z,1006
2016-01-27T08:15:04.001Z,1005.9
2016-01-27T08:16:03.722Z,1006
2016-01-27T08:17:03.678Z,1005.8
2016-01-27T08:18:03.634Z,1005.8
2016-01-27T08:19:02.809Z,1005.8
2016-01-27T08:20:03.515Z,1005.8
2016-01-27T08:21:03.706Z,1005.7
2016-01-27T08:22:02.665Z,1005.8
2016-01-27T08:23:03.372Z,1006
2016-01-27T08:24:02.562Z,1005.8
2016-01-27T08:25:03.268Z,1005.9
2016-01-27T08:26:03.052Z,1005.8
2016-01-27T08:27:03.148Z,1005.8
2016-01-27T08:28:03.105Z,1005.8
2016-01-27T08:29:03.060Z,1005.9
2016-01-27T08:30:02.999Z,1005.7
2016-01-27T08:31:03.146Z,1005.8
2016-01-27T08:32:02.899Z,1005.9
2016-01-27T08:33:02.874Z,1005.9
2016-01-27T08:34:02.782Z,1005.9
2016-01-27T08:35:02.738Z,1005.9
2016-01-27T08:36:02.678Z,1005.8
2016-01-27T08:37:02.634Z,1005.8
2016-01-27T08:38:02.591Z,1005.8
2016-01-27T08:39:02.531Z,1005.8
2016-01-27T08:40:02.491Z,1005.9
2016-01-27T08:41:02.446Z,1005.8
2016-01-27T08:42:01.636Z,1005.8
2016-01-27T08:43:02.327Z,1005.9
2016-01-27T08:44:02.283Z,1005.9
2016-01-27T08:45:02.224Z,1005.7
2016-01-27T08:46:02.179Z,1005.7
2016-01-27T08:47:02.120Z,1005.7
2016-01-27T08:48:02.076Z,1005.8
2016-01-27T08:49:02.021Z,1005.7
2016-01-27T08:50:01.212Z,1005.8
2016-01-27T08:51:01.918Z,1005.8
2016-01-27T08:52:01.874Z,1005.9
2016-01-27T08:53:01.814Z,1005.8
2016-01-27T08:54:01.802Z,1005.8
2016-01-27T08:55:01.727Z,1005.9
2016-01-27T08:56:01.671Z,1006
2016-01-27T08:57:01.845Z,1005.9
2016-01-27T08:58:01.551Z,1006
2016-01-27T08:59:01.741Z,1006
2016-01-27T09:00:01.463Z,1005.8
2016-01-27T09:01:01.263Z,1006
2016-01-27T09:02:01.546Z,1005.9
2016-01-27T09:03:01.174Z,1006
2016-01-27T09:04:01.258Z,1005.9
2016-01-27T09:05:01.401Z,1005.9
2016-01-27T09:06:01.373Z,1005.9
2016-01-27T09:07:01.094Z,1005.9
2016-01-27T09:08:01.036Z,1006
2016-01-27T09:09:00.991Z,1005.8
2016-01-27T09:10:00.947Z,1005.9
2016-01-27T09:11:00.891Z,1005.9
2016-01-27T09:12:00.831Z,1005.9
2016-01-27T09:13:00.787Z,1005.9
2016-01-27T09:14:00.728Z,1006
2016-01-27T09:15:00.700Z,1005.9
2016-01-27T09:16:00.640Z,1005.9
2016-01-27T09:17:00.580Z,1005.8
2016-01-27T09:18:00.364Z,1006
2016-01-27T09:19:00.323Z,1006
2016-01-27T09:20:00.424Z,1006
2016-01-27T09:21:00.365Z,1005.9
2016-01-27T09:22:00.322Z,1005.9
2016-01-27T09:23:00.270Z,1005.9
2016-01-27T09:24:00.212Z,1005.8
2016-01-27T09:25:00.167Z,1005.8
2016-01-27T09:26:00.095Z,1005.9
2016-01-27T09:27:00.051Z,1005.9
2016-01-27T09:28:00.006Z,1005.7
2016-01-27T09:28:59.946Z,1005.9
2016-01-27T09:29:59.919Z,1005.9
2016-01-27T09:31:00.078Z,1005.9
2016-01-27T09:31:59.799Z,1006
2016-01-27T09:32:59.743Z,1005.8
2016-01-27T09:33:59.933Z,1005.8
2016-01-27T09:34:59.654Z,1005.9
2016-01-27T09:35:59.829Z,1005.9
2016-01-27T09:36:59.535Z,1005.8
2016-01-27T09:37:59.492Z,1005.9
2016-01-27T09:38:59.447Z,1006
2016-01-27T09:39:59.388Z,1005.9
2016-01-27T09:40:59.327Z,1005.9
2016-01-27T09:41:59.299Z,1006
2016-01-27T09:42:59.226Z,1006
2016-01-27T09:43:59.402Z,1005.9
2016-01-27T09:44:59.110Z,1005.8
2016-01-27T09:45:59.065Z,1006
2016-01-27T09:46:59.240Z,1005.9
2016-01-27T09:47:58.964Z,1005.9
2016-01-27T09:48:58.905Z,1005.9
2016-01-27T09:49:58.845Z,1005.9
2016-01-27T09:50:58.817Z,1006
2016-01-27T09:51:58.975Z,1005.8
2016-01-27T09:52:58.697Z,1006
2016-01-27T09:53:58.654Z,1006
2016-01-27T09:54:58.620Z,1006
2016-01-27T09:55:58.545Z,1006
2016-01-27T09:56:58.501Z,1006
2016-01-27T09:57:58.440Z,1006.1
2016-01-27T09:58:58.397Z,1006
2016-01-27T09:59:58.180Z,1006.2
2016-01-27T10:00:58.280Z,1006
2016-01-27T10:01:58.235Z,1006.1
2016-01-27T10:02:58.174Z,1006
2016-01-27T10:03:58.146Z,1006.1
2016-01-27T10:04:58.072Z,1006
2016-01-27T10:05:58.028Z,1006
2016-01-27T10:06:57.983Z,1006.1
2016-01-27T10:07:57.944Z,1006.1
2016-01-27T10:08:57.868Z,1006.1
2016-01-27T10:09:57.825Z,1006.1
2016-01-27T10:10:58.015Z,1006
2016-01-27T10:11:57.722Z,1006.1
2016-01-27T10:12:57.678Z,1006
2016-01-27T10:13:57.852Z,1006.1
2016-01-27T10:14:57.558Z,1006.1
2016-01-27T10:15:57.499Z,1006
2016-01-27T10:16:56.705Z,1005.9
2016-01-27T10:17:57.395Z,1005.8
2016-01-27T10:18:57.351Z,1006
2016-01-27T10:19:57.307Z,1005.8
2016-01-27T10:20:57.233Z,1005.9
2016-01-27T10:21:57.188Z,1005.9
2016-01-27T10:22:57.129Z,1005.9
2016-01-27T10:23:57.303Z,1005.8
2016-01-27T10:24:57.025Z,1005.6
2016-01-27T10:25:56.983Z,1005.8
2016-01-27T10:26:56.926Z,1005.7
2016-01-27T10:27:57.069Z,1005.7
2016-01-27T10:28:56.807Z,1005.6
2016-01-27T10:29:56.777Z,1005.8
2016-01-27T10:30:56.704Z,1005.7
2016-01-27T10:31:55.910Z,1005.7
2016-01-27T10:32:56.804Z,1006
2016-01-27T10:33:56.559Z,1005.9
2016-01-27T10:34:56.530Z,1005.8
2016-01-27T10:35:56.456Z,1005.7
2016-01-27T10:36:56.379Z,1005.8
2016-01-27T10:37:56.339Z,1005.8
2016-01-27T10:38:56.294Z,1005.8
2016-01-27T10:39:56.234Z,1005.9
2016-01-27T10:40:56.175Z,1005.9
2016-01-27T10:41:56.146Z,1005.9
2016-01-27T10:42:56.071Z,1005.9
2016-01-27T10:43:56.027Z,1005.9
2016-01-27T10:44:55.970Z,1005.9
2016-01-27T10:45:55.925Z,1005.9
2016-01-27T10:46:56.070Z,1006.1
2016-01-27T10:47:56.009Z,1005.8
2016-01-27T10:48:55.779Z,1005.9
2016-01-27T10:49:55.703Z,1005.9
2016-01-27T10:50:55.642Z,1005.9
2016-01-27T10:51:55.599Z,1005.9
2016-01-27T10:52:55.554Z,1005.9
2016-01-27T10:53:55.698Z,1006
2016-01-27T10:54:55.467Z,1005.9
2016-01-27T10:55:55.378Z,1005.9
2016-01-27T10:56:55.346Z,1005.9
2016-01-27T10:57:55.285Z,1005.9
2016-01-27T10:58:55.241Z,1005.9
2016-01-27T10:59:55.183Z,1005.9
2016-01-27T11:00:54.389Z,1005.9
2016-01-27T11:01:55.078Z,1005.9
2016-01-27T11:02:55.019Z,1005.8
2016-01-27T11:03:54.976Z,1005.7
2016-01-27T11:04:54.962Z,1005.6
2016-01-27T11:05:54.918Z,1005.7
2016-01-27T11:06:54.812Z,1005.7
2016-01-27T11:07:54.767Z,1005.7
2016-01-27T11:08:55.146Z,1005.7
2016-01-27T11:09:54.662Z,1005.6
2016-01-27T11:10:54.603Z,1005.8
2016-01-27T11:11:54.537Z,1005.6
2016-01-27T11:12:53.716Z,1005.7
2016-01-27T11:13:54.411Z,1005.7
2016-01-27T11:14:54.372Z,1005.7
2016-01-27T11:15:54.287Z,1005.8
2016-01-27T11:16:54.473Z,1005.7
2016-01-27T11:17:54.183Z,1005.7
2016-01-27T11:18:54.120Z,1005.6
2016-01-27T11:19:54.056Z,1005.7
2016-01-27T11:20:54.055Z,1005.7
2016-01-27T11:21:54.181Z,1005.8
2016-01-27T11:22:54.104Z,1005.7
2016-01-27T11:23:53.858Z,1005.7
2016-01-27T11:24:53.781Z,1005.7
2016-01-27T11:25:53.995Z,1005.6
2016-01-27T11:26:53.684Z,1005.7
2016-01-27T11:27:53.625Z,1005.7
2016-01-27T11:28:53.565Z,1005.6
2016-01-27T11:29:53.396Z,1005.6
2016-01-27T11:30:53.476Z,1005.5
2016-01-27T11:31:53.416Z,1005.6
2016-01-27T11:32:53.388Z,1005.6
2016-01-27T11:33:53.327Z,1005.7
2016-01-27T11:34:53.254Z,1005.6
2016-01-27T11:35:53.210Z,1005.6
2016-01-27T11:36:53.151Z,1005.6
2016-01-27T11:37:53.106Z,1005.5
2016-01-27T11:38:53.047Z,1005.5
2016-01-27T11:39:53.036Z,1005.5
2016-01-27T11:40:52.945Z,1005.5
2016-01-27T11:41:52.964Z,1005.4
2016-01-27T11:42:53.062Z,1005.5
2016-01-27T11:43:52.784Z,1005.3
2016-01-27T11:44:52.740Z,1005.3
2016-01-27T11:45:52.682Z,1005.3
2016-01-27T11:46:52.638Z,1005.2
2016-01-27T11:47:52.578Z,1005.2
2016-01-27T11:48:52.768Z,1005.2
2016-01-27T11:49:52.475Z,1005.2
2016-01-27T11:50:52.509Z,1005.2
2016-01-27T11:51:52.606Z,1005.3
2016-01-27T11:52:52.328Z,1005.3
2016-01-27T11:53:52.285Z,1005.3
2016-01-27T11:54:52.209Z,1005.3
2016-01-27T11:55:52.190Z,1005.4
2016-01-27T11:56:52.099Z,1005.4
2016-01-27T11:57:52.102Z,1005.3
2016-01-27T11:58:52.012Z,1005.3
2016-01-27T11:59:51.999Z,1005.3
2016-01-27T12:00:51.907Z,1005.4
2016-01-27T12:01:51.848Z,1005.2
2016-01-27T12:02:51.803Z,1005.3
2016-01-27T12:03:51.603Z,1005.3
2016-01-27T12:04:51.699Z,1005.3
2016-01-27T12:05:51.655Z,1005.3
2016-01-27T12:06:51.595Z,1005.3
2016-01-27T12:07:51.770Z,1005.4
2016-01-27T12:08:51.507Z,1005.3
2016-01-27T12:09:51.448Z,1005.3
2016-01-27T12:10:51.607Z,1005.2
2016-01-27T12:11:51.548Z,1005.2
2016-01-27T12:12:51.269Z,1005.1
2016-01-27T12:13:51.224Z,1005.2
2016-01-27T12:14:51.369Z,1005.1
2016-01-27T12:15:51.139Z,1005.1
2016-01-27T12:16:51.094Z,1005.2
2016-01-27T12:17:51.018Z,1005.3
2016-01-27T12:18:51.005Z,1005.2
2016-01-27T12:19:50.918Z,1005.2
2016-01-27T12:20:50.874Z,1005.1
2016-01-27T12:21:51.033Z,1005.1
2016-01-27T12:22:50.759Z,1005.1
2016-01-27T12:23:50.715Z,1005
2016-01-27T12:24:50.670Z,1005
2016-01-27T12:25:50.611Z,1005.1
2016-01-27T12:26:50.555Z,1004.9
2016-01-27T12:27:50.497Z,1005
2016-01-27T12:28:50.469Z,1005
2016-01-27T12:29:50.408Z,1004.9
2016-01-27T12:30:50.363Z,1004.9
2016-01-27T12:31:50.507Z,1005
2016-01-27T12:32:50.093Z,1005
2016-01-27T12:33:50.204Z,1005
2016-01-27T12:34:50.161Z,1004.9
2016-01-27T12:35:49.368Z,1005